Time;durP1;ratioP1;P1;durP2;ratioP2;P2;SDS_P1;SDS_P2;PMS_P1;PMS_P2;Temp;Humidity;BMP_temperature;BMP_pressure;BME280_temperature;BME280_humidity;BME280_pressure;Samples;Min_cycle;Max_cycle;Signal;HPM_P1;HPM_P2
2022/01/18 00:00:49;;;;;;;173.93;26.15;;;;;;;;;;4927860;29;20123;-63
2022/01/18 00:03:15;;;;;;;94.05;21.70;;;;;;;;;;4940148;29;20030;-63
2022/01/18 00:05:44;;;;;;;171.18;26.13;;;;;;;;;;4940275;28;20052;-63
2022/01/18 00:08:10;;;;;;;150.63;24.52;;;;;;;;;;4933185;29;20107;-63
2022/01/18 00:10:36;;;;;;;147.82;24.20;;;;;;;;;;4935529;29;20049;-63
2022/01/18 00:15:37;;;;;;;195.18;26.50;;;;;;;;;;4946654;29;20039;-63
2022/01/18 00:23:19;;;;;;;117.30;21.02;;;;;;;;;;4936337;29;20413;-63
2022/01/18 00:25:49;;;;;;;139.55;23.52;;;;;;;;;;4946490;29;20039;-63
2022/01/18 00:28:15;;;;;;;146.75;23.05;;;;;;;;;;4941545;29;20052;-63
2022/01/18 00:35:47;;;;;;;142.18;22.05;;;;;;;;;;4962917;28;20084;-63
2022/01/18 00:40:59;;;;;;;85.45;19.63;;;;;;;;;;4988005;28;20414;-63
2022/01/18 00:43:26;;;;;;;93.07;17.88;;;;;;;;;;5010429;28;20398;-63
2022/01/18 00:45:52;;;;;;;97.07;18.10;;;;;;;;;;5003105;28;20506;-63
2022/01/18 00:48:18;;;;;;;102.35;17.45;;;;;;;;;;5012343;28;20018;-63
2022/01/18 00:50:44;;;;;;;83.82;17.90;;;;;;;;;;5012322;28;20390;-63
2022/01/18 00:53:14;;;;;;;73.68;18.00;;;;;;;;;;4996258;28;20033;-63
2022/01/18 00:55:52;;;;;;;58.40;18.30;;;;;;;;;;4997362;28;20387;-63
2022/01/18 00:58:18;;;;;;;57.00;17.13;;;;;;;;;;5011529;28;20038;-63
2022/01/18 01:00:44;;;;;;;51.88;15.88;;;;;;;;;;4999321;28;20033;-63
2022/01/18 01:03:10;;;;;;;40.97;18.08;;;;;;;;;;5007797;28;20081;-63
2022/01/18 01:05:36;;;;;;;80.40;18.55;;;;;;;;;;4996413;28;20030;-63
2022/01/18 01:08:02;;;;;;;86.50;18.52;;;;;;;;;;4995744;28;20390;-63
2022/01/18 01:10:28;;;;;;;102.10;18.95;;;;;;;;;;5011999;28;20026;-63
2022/01/18 01:12:55;;;;;;;176.65;23.23;;;;;;;;;;5000602;28;20020;-63
2022/01/18 01:15:24;;;;;;;141.65;20.25;;;;;;;;;;5007508;28;20035;-63
2022/01/18 01:18:08;;;;;;;235.10;28.17;;;;;;;;;;5007882;28;20038;-63
2022/01/18 01:34:39;;;;;;;150.02;20.88;;;;;;;;;;4998714;28;20501;-63
2022/01/18 01:45:06;;;;;;;152.70;21.17;;;;;;;;;;4999414;28;20036;-63
2022/01/18 01:47:37;;;;;;;71.53;17.52;;;;;;;;;;5003326;28;20231;-63
2022/01/18 01:50:04;;;;;;;62.20;18.05;;;;;;;;;;5001588;28;20049;-63
2022/01/18 01:52:31;;;;;;;119.32;18.85;;;;;;;;;;5011263;28;20033;-63
2022/01/18 01:54:57;;;;;;;159.80;21.52;;;;;;;;;;4995417;28;20035;-63
2022/01/18 01:57:23;;;;;;;193.48;21.52;;;;;;;;;;4995307;28;20484;-63
2022/01/18 01:59:50;;;;;;;79.53;18.80;;;;;;;;;;5005856;28;20052;-63
2022/01/18 02:02:16;;;;;;;159.57;20.23;;;;;;;;;;5000091;28;20410;-63
2022/01/18 02:04:42;;;;;;;177.98;21.35;;;;;;;;;;5006985;28;20042;-63
2022/01/18 02:07:08;;;;;;;97.97;18.95;;;;;;;;;;4997718;28;20049;-63
2022/01/18 02:09:34;;;;;;;86.88;17.52;;;;;;;;;;5003497;28;20032;-63
2022/01/18 02:12:01;;;;;;;85.15;18.85;;;;;;;;;;5002332;28;20027;-63
2022/01/18 02:14:29;;;;;;;78.93;18.20;;;;;;;;;;5010491;28;20065;-63
2022/01/18 02:22:25;;;;;;;91.72;18.88;;;;;;;;;;5010340;28;20040;-63
2022/01/18 02:24:51;;;;;;;75.68;18.25;;;;;;;;;;4997438;28;20033;-63
2022/01/18 02:27:17;;;;;;;105.57;18.90;;;;;;;;;;5008085;28;20022;-63
2022/01/18 02:29:43;;;;;;;89.13;19.48;;;;;;;;;;5003987;28;20363;-63
2022/01/18 02:32:10;;;;;;;100.10;21.92;;;;;;;;;;5001110;28;20080;-63
2022/01/18 02:34:36;;;;;;;74.40;18.02;;;;;;;;;;4994171;28;20039;-63
2022/01/18 02:37:04;;;;;;;46.00;17.73;;;;;;;;;;5010270;28;20034;-63
2022/01/18 02:39:30;;;;;;;72.45;18.48;;;;;;;;;;4984339;28;20482;-63
2022/01/18 02:42:07;;;;;;;37.55;15.88;;;;;;;;;;5002757;28;20364;-63
2022/01/18 02:44:34;;;;;;;64.70;19.30;;;;;;;;;;5010160;28;20033;-63
2022/01/18 02:47:00;;;;;;;101.10;19.80;;;;;;;;;;4996692;28;20379;-63
2022/01/18 02:49:27;;;;;;;84.75;19.83;;;;;;;;;;5006264;28;20045;-63
2022/01/18 02:51:53;;;;;;;39.38;17.35;;;;;;;;;;5004595;28;20108;-63
2022/01/18 02:54:19;;;;;;;61.42;18.25;;;;;;;;;;4999550;28;20046;-63
2022/01/18 02:56:50;;;;;;;54.15;17.35;;;;;;;;;;4995235;28;20030;-63
2022/01/18 02:59:24;;;;;;;73.60;19.10;;;;;;;;;;5004962;28;20041;-63
2022/01/18 03:04:39;;;;;;;54.92;18.08;;;;;;;;;;4993940;28;20040;-63
2022/01/18 03:07:05;;;;;;;59.15;19.15;;;;;;;;;;5009746;28;20026;-63
2022/01/18 03:09:31;;;;;;;53.40;18.83;;;;;;;;;;5001284;28;20513;-63
2022/01/18 03:11:57;;;;;;;52.75;19.35;;;;;;;;;;5002393;28;20022;-63
2022/01/18 03:14:24;;;;;;;48.25;18.92;;;;;;;;;;4995077;28;20093;-63
2022/01/18 03:16:50;;;;;;;39.65;17.15;;;;;;;;;;4996467;28;20034;-63
2022/01/18 03:19:16;;;;;;;29.63;17.02;;;;;;;;;;4998988;28;20370;-63
2022/01/18 03:21:42;;;;;;;30.85;16.25;;;;;;;;;;5004389;28;20064;-63
2022/01/18 03:24:19;;;;;;;33.80;16.17;;;;;;;;;;5003693;28;20026;-63
2022/01/18 03:29:30;;;;;;;46.40;16.88;;;;;;;;;;5000301;28;20051;-63
2022/01/18 03:31:56;;;;;;;42.90;16.80;;;;;;;;;;4984553;28;20045;-63
2022/01/18 03:34:22;;;;;;;57.65;17.13;;;;;;;;;;5007246;28;20599;-63
2022/01/18 03:36:48;;;;;;;66.80;17.40;;;;;;;;;;4996179;28;20075;-63
2022/01/18 03:39:15;;;;;;;39.40;15.30;;;;;;;;;;5008077;28;20050;-63
2022/01/18 03:41:41;;;;;;;62.75;17.55;;;;;;;;;;5001473;28;20028;-63
2022/01/18 03:44:07;;;;;;;42.05;15.23;;;;;;;;;;5001531;28;20038;-63
2022/01/18 03:46:36;;;;;;;46.47;16.65;;;;;;;;;;4997329;28;20110;-63
2022/01/18 03:49:04;;;;;;;34.30;14.43;;;;;;;;;;5007080;28;20107;-63
2022/01/18 03:51:30;;;;;;;51.35;16.70;;;;;;;;;;4999891;28;20036;-63
2022/01/18 03:53:56;;;;;;;69.78;16.17;;;;;;;;;;5003074;28;20113;-63
2022/01/18 03:56:22;;;;;;;43.22;15.15;;;;;;;;;;5006596;28;20113;-63
2022/01/18 03:58:48;;;;;;;54.22;16.65;;;;;;;;;;4996025;28;20026;-63
2022/01/18 04:01:14;;;;;;;39.40;15.60;;;;;;;;;;5008126;28;20481;-63
2022/01/18 04:03:40;;;;;;;43.47;16.80;;;;;;;;;;4993085;28;20022;-63
2022/01/18 04:06:07;;;;;;;30.63;15.00;;;;;;;;;;4992840;28;20125;-63
2022/01/18 04:08:33;;;;;;;33.53;16.67;;;;;;;;;;4993548;28;20030;-63
2022/01/18 04:10:59;;;;;;;37.03;17.30;;;;;;;;;;5002844;28;20057;-63
2022/01/18 04:13:26;;;;;;;32.45;16.40;;;;;;;;;;4998633;28;20109;-63
2022/01/18 04:15:52;;;;;;;29.35;15.82;;;;;;;;;;5003139;28;20062;-63
2022/01/18 04:25:44;;;;;;;30.52;16.52;;;;;;;;;;5005366;28;20112;-63
2022/01/18 04:29:09;;;;;;;26.70;14.80;;;;;;;;;;4995823;28;20022;-63
2022/01/18 04:31:36;;;;;;;32.17;15.77;;;;;;;;;;5005479;28;20073;-63
2022/01/18 04:34:02;;;;;;;30.70;18.05;;;;;;;;;;4974965;28;20029;-63
2022/01/18 04:36:28;;;;;;;36.95;16.67;;;;;;;;;;5006401;28;20394;-63
2022/01/18 04:38:55;;;;;;;28.85;15.93;;;;;;;;;;4995453;28;20026;-63
2022/01/18 04:41:27;;;;;;;30.02;15.88;;;;;;;;;;5007891;28;20022;-63
2022/01/18 04:49:12;;;;;;;27.67;15.35;;;;;;;;;;4992900;28;20038;-63
2022/01/18 04:51:40;;;;;;;28.98;15.18;;;;;;;;;;4992883;28;20064;-63
2022/01/18 04:54:08;;;;;;;26.58;14.82;;;;;;;;;;4992656;28;20080;-63
2022/01/18 04:59:01;;;;;;;30.88;15.27;;;;;;;;;;4994260;28;20491;-63
2022/01/18 05:01:27;;;;;;;29.27;16.30;;;;;;;;;;4996437;28;20433;-63
2022/01/18 05:03:53;;;;;;;28.65;15.80;;;;;;;;;;4996401;28;20027;-63
2022/01/18 05:06:20;;;;;;;29.88;15.05;;;;;;;;;;4996293;28;20049;-63
2022/01/18 05:08:47;;;;;;;28.00;15.35;;;;;;;;;;4996596;28;20040;-63
2022/01/18 05:11:15;;;;;;;34.78;16.52;;;;;;;;;;4996728;28;20478;-63
2022/01/18 05:22:55;;;;;;;35.28;17.80;;;;;;;;;;4994625;28;20046;-63
2022/01/18 05:24:16;;;;;;;43.50;20.05;;;;;;;;;;4998010;28;20041;-63
2022/01/18 05:26:42;;;;;;;75.63;33.67;;;;;;;;;;4993797;28;20050;-63
2022/01/18 05:29:08;;;;;;;53.25;26.02;;;;;;;;;;4984811;28;20026;-63
2022/01/18 05:31:34;;;;;;;46.55;22.73;;;;;;;;;;4994897;28;20027;-63
2022/01/18 05:34:00;;;;;;;39.17;21.10;;;;;;;;;;4994296;28;20022;-63
2022/01/18 05:36:28;;;;;;;44.53;19.83;;;;;;;;;;4996334;28;20176;-63
2022/01/18 05:38:54;;;;;;;37.83;18.75;;;;;;;;;;4995814;28;20034;-63
2022/01/18 05:41:20;;;;;;;40.42;18.58;;;;;;;;;;4994916;28;20053;-63
2022/01/18 05:43:46;;;;;;;32.72;17.08;;;;;;;;;;4995539;28;20743;-63
2022/01/18 05:46:12;;;;;;;37.63;17.50;;;;;;;;;;4994716;28;20026;-63
2022/01/18 05:48:39;;;;;;;36.28;18.33;;;;;;;;;;4994272;28;20482;-63
2022/01/18 05:51:05;;;;;;;32.40;16.85;;;;;;;;;;4990898;28;20101;-63
2022/01/18 05:53:32;;;;;;;41.58;19.02;;;;;;;;;;4993996;28;20508;-63
2022/01/18 05:55:58;;;;;;;37.78;19.00;;;;;;;;;;4997995;28;20038;-63
2022/01/18 05:58:25;;;;;;;35.22;17.27;;;;;;;;;;4993435;28;20030;-63
2022/01/18 06:00:54;;;;;;;35.00;17.38;;;;;;;;;;4994347;28;20506;-63
2022/01/18 06:03:32;;;;;;;32.95;16.80;;;;;;;;;;4994823;28;20110;-63
2022/01/18 06:08:43;;;;;;;39.13;16.67;;;;;;;;;;4990011;28;20077;-63
2022/01/18 06:11:10;;;;;;;40.72;18.85;;;;;;;;;;4996803;28;20048;-63
2022/01/18 06:13:36;;;;;;;37.00;18.30;;;;;;;;;;4996824;28;20390;-63
2022/01/18 06:16:02;;;;;;;34.60;17.55;;;;;;;;;;5008007;28;20042;-63
2022/01/18 06:18:29;;;;;;;33.50;17.80;;;;;;;;;;4998065;28;20026;-63
2022/01/18 06:20:55;;;;;;;28.42;16.05;;;;;;;;;;4993893;28;20030;-63
2022/01/18 06:23:21;;;;;;;31.25;16.17;;;;;;;;;;4998220;28;20081;-63
2022/01/18 06:25:47;;;;;;;33.67;16.85;;;;;;;;;;4995140;28;20510;-63
2022/01/18 06:28:14;;;;;;;36.30;17.77;;;;;;;;;;4994260;28;20048;-63
2022/01/18 06:30:40;;;;;;;39.20;17.88;;;;;;;;;;4992179;28;20038;-63
2022/01/18 06:33:06;;;;;;;34.60;17.83;;;;;;;;;;4991941;28;20018;-61
2022/01/18 06:35:32;;;;;;;35.97;16.50;;;;;;;;;;4992628;28;20034;-62
2022/01/18 06:37:59;;;;;;;32.00;16.65;;;;;;;;;;4993582;28;20049;-62
2022/01/18 06:40:26;;;;;;;33.17;16.77;;;;;;;;;;4992949;28;20054;-62
2022/01/18 06:42:52;;;;;;;35.08;17.50;;;;;;;;;;4993336;28;20037;-62
2022/01/18 06:45:18;;;;;;;33.80;16.63;;;;;;;;;;4994678;28;20038;-62
2022/01/18 06:47:44;;;;;;;38.03;17.30;;;;;;;;;;4994323;28;20068;-62
2022/01/18 06:50:11;;;;;;;32.25;16.55;;;;;;;;;;5002083;28;20420;-62
2022/01/18 06:52:37;;;;;;;35.58;17.35;;;;;;;;;;5002009;28;20034;-62
2022/01/18 06:55:04;;;;;;;36.03;17.63;;;;;;;;;;4994819;28;20443;-62
2022/01/18 06:57:30;;;;;;;38.92;18.55;;;;;;;;;;4994862;28;20026;-62
2022/01/18 06:59:56;;;;;;;39.42;18.38;;;;;;;;;;5004998;28;20053;-62
2022/01/18 07:02:23;;;;;;;41.85;18.90;;;;;;;;;;4994306;28;20045;-62
2022/01/18 07:04:49;;;;;;;39.60;17.88;;;;;;;;;;4992039;28;20022;-62
2022/01/18 07:07:16;;;;;;;35.67;17.48;;;;;;;;;;4997271;28;20101;-62
2022/01/18 07:09:44;;;;;;;33.60;16.88;;;;;;;;;;5003202;28;20033;-62
2022/01/18 07:12:11;;;;;;;39.40;18.60;;;;;;;;;;5007795;28;20026;-62
2022/01/18 07:14:37;;;;;;;37.40;17.83;;;;;;;;;;4996331;28;20049;-62
2022/01/18 07:17:04;;;;;;;39.30;18.40;;;;;;;;;;4993562;28;20035;-62
2022/01/18 07:19:33;;;;;;;37.28;18.85;;;;;;;;;;5001184;28;20077;-62
2022/01/18 07:21:59;;;;;;;38.53;18.38;;;;;;;;;;5003210;28;20024;-64
2022/01/18 07:24:45;;;;;;;41.03;18.92;;;;;;;;;;4999245;28;20028;-63
2022/01/18 07:27:13;;;;;;;36.38;17.92;;;;;;;;;;4999278;28;20052;-63
2022/01/18 07:29:41;;;;;;;37.63;19.55;;;;;;;;;;5002080;28;20030;-63
2022/01/18 07:32:08;;;;;;;37.25;18.58;;;;;;;;;;4995120;28;20022;-63
2022/01/18 07:34:38;;;;;;;38.22;18.88;;;;;;;;;;4990638;28;20101;-63
2022/01/18 07:37:04;;;;;;;38.67;19.23;;;;;;;;;;4990765;28;20041;-63
2022/01/18 07:39:30;;;;;;;38.58;19.77;;;;;;;;;;4992787;28;20050;-63
2022/01/18 07:41:56;;;;;;;35.90;18.33;;;;;;;;;;5002769;28;20026;-63
2022/01/18 07:44:23;;;;;;;40.67;19.02;;;;;;;;;;4996220;28;20026;-63
2022/01/18 07:46:49;;;;;;;41.95;18.77;;;;;;;;;;4997826;28;20031;-63
2022/01/18 07:49:15;;;;;;;39.70;19.52;;;;;;;;;;5002985;28;20495;-63
2022/01/18 07:51:41;;;;;;;41.03;21.38;;;;;;;;;;5003557;28;20026;-63
2022/01/18 07:54:08;;;;;;;44.25;21.77;;;;;;;;;;4999811;28;20534;-63
2022/01/18 07:56:34;;;;;;;43.17;20.90;;;;;;;;;;4995123;28;20026;-63
2022/01/18 07:59:00;;;;;;;42.95;21.23;;;;;;;;;;4993965;28;20038;-63
2022/01/18 08:01:26;;;;;;;39.50;19.25;;;;;;;;;;5000235;28;20108;-63
2022/01/18 08:03:52;;;;;;;40.10;19.52;;;;;;;;;;5001017;28;20030;-63
2022/01/18 08:06:18;;;;;;;37.50;18.95;;;;;;;;;;4996922;28;20394;-63
2022/01/18 08:08:44;;;;;;;40.13;19.67;;;;;;;;;;4995234;28;20117;-63
2022/01/18 08:11:10;;;;;;;41.72;19.80;;;;;;;;;;5002584;28;20041;-63
2022/01/18 08:13:40;;;;;;;42.67;18.70;;;;;;;;;;4996312;28;20018;-63
2022/01/18 08:18:49;;;;;;;35.17;19.20;;;;;;;;;;5006090;28;20105;-62
2022/01/18 08:21:15;;;;;;;46.50;20.35;;;;;;;;;;4994226;28;20372;-62
2022/01/18 08:23:42;;;;;;;39.90;18.80;;;;;;;;;;5002351;28;20026;-62
2022/01/18 08:26:08;;;;;;;46.67;21.85;;;;;;;;;;4999596;28;20470;-62
2022/01/18 08:28:34;;;;;;;45.47;21.13;;;;;;;;;;5003500;28;20014;-62
2022/01/18 08:31:00;;;;;;;43.47;21.50;;;;;;;;;;4980217;28;20113;-62
2022/01/18 08:33:26;;;;;;;46.53;20.05;;;;;;;;;;5004268;28;20053;-62
2022/01/18 08:35:52;;;;;;;45.67;21.60;;;;;;;;;;5000048;28;20426;-62
2022/01/18 08:38:18;;;;;;;48.33;19.63;;;;;;;;;;5003661;28;20029;-62
2022/01/18 08:40:44;;;;;;;38.25;19.55;;;;;;;;;;5011160;28;20053;-62
2022/01/18 08:43:10;;;;;;;42.80;21.10;;;;;;;;;;5001044;28;20026;-62
2022/01/18 08:45:37;;;;;;;44.58;20.10;;;;;;;;;;5004917;28;20542;-62
2022/01/18 08:48:03;;;;;;;42.38;20.55;;;;;;;;;;5006938;28;20506;-63
2022/01/18 08:50:31;;;;;;;45.63;21.17;;;;;;;;;;5002846;28;20026;-62
2022/01/18 08:52:57;;;;;;;42.47;20.08;;;;;;;;;;5007364;28;20404;-62
2022/01/18 08:55:23;;;;;;;43.70;20.17;;;;;;;;;;5001490;28;20030;-62
2022/01/18 08:57:49;;;;;;;46.60;20.23;;;;;;;;;;5005601;28;20030;-62
2022/01/18 09:00:17;;;;;;;43.33;20.77;;;;;;;;;;5003092;28;20027;-62
2022/01/18 09:02:43;;;;;;;44.03;20.40;;;;;;;;;;5001953;28;20041;-62
2022/01/18 09:05:10;;;;;;;42.13;19.23;;;;;;;;;;5005198;28;20038;-62
2022/01/18 09:07:38;;;;;;;43.40;19.35;;;;;;;;;;5005972;28;20021;-62
2022/01/18 09:10:10;;;;;;;42.88;19.52;;;;;;;;;;5003585;28;20462;-62
2022/01/18 09:12:37;;;;;;;42.22;20.58;;;;;;;;;;5006635;28;20022;-62
2022/01/18 09:15:06;;;;;;;40.45;20.05;;;;;;;;;;5001515;28;20042;-62
2022/01/18 09:17:33;;;;;;;43.08;20.25;;;;;;;;;;5007469;28;20141;-62
2022/01/18 09:20:00;;;;;;;44.33;20.30;;;;;;;;;;5002020;28;20030;-62
2022/01/18 09:22:26;;;;;;;41.78;19.42;;;;;;;;;;5004762;28;20026;-62
2022/01/18 09:24:52;;;;;;;40.00;19.20;;;;;;;;;;4999065;28;20467;-62
2022/01/18 09:27:18;;;;;;;49.45;21.05;;;;;;;;;;5009412;28;20514;-62
2022/01/18 09:29:45;;;;;;;40.53;21.10;;;;;;;;;;4995968;28;20064;-63
2022/01/18 09:32:11;;;;;;;41.63;19.77;;;;;;;;;;5005194;28;20046;-63
2022/01/18 09:34:37;;;;;;;39.83;19.17;;;;;;;;;;5006084;28;20022;-62
2022/01/18 09:37:03;;;;;;;43.17;19.73;;;;;;;;;;5000587;28;20048;-63
2022/01/18 09:39:29;;;;;;;38.95;19.02;;;;;;;;;;5002690;28;20154;-63
2022/01/18 09:41:58;;;;;;;42.30;19.58;;;;;;;;;;5005861;28;20066;-63
2022/01/18 09:44:25;;;;;;;43.85;19.85;;;;;;;;;;5002821;28;20034;-62
2022/01/18 09:46:52;;;;;;;43.58;20.88;;;;;;;;;;5001204;28;20113;-63
2022/01/18 09:49:18;;;;;;;40.13;20.13;;;;;;;;;;5007470;28;20060;-63
2022/01/18 09:51:45;;;;;;;45.97;20.67;;;;;;;;;;5005111;28;20033;-63
2022/01/18 09:54:11;;;;;;;42.28;19.45;;;;;;;;;;4999619;28;20456;-62
2022/01/18 09:56:37;;;;;;;43.00;20.95;;;;;;;;;;4991964;28;20372;-63
2022/01/18 09:59:04;;;;;;;39.65;19.42;;;;;;;;;;4996887;28;20026;-63
2022/01/18 10:01:30;;;;;;;46.38;20.90;;;;;;;;;;5006900;28;20026;-63
2022/01/18 10:04:17;;;;;;;45.35;21.70;;;;;;;;;;5003617;28;20068;-63
2022/01/18 10:06:44;;;;;;;48.30;21.88;;;;;;;;;;5001279;28;20401;-63
2022/01/18 10:09:14;;;;;;;44.15;21.50;;;;;;;;;;4980840;28;20423;-62
2022/01/18 10:12:11;;;;;;;44.85;21.85;;;;;;;;;;5007109;28;20054;-63
2022/01/18 10:14:38;;;;;;;42.40;19.17;;;;;;;;;;5004333;28;20053;-63
2022/01/18 10:17:05;;;;;;;47.95;20.60;;;;;;;;;;4999606;28;20061;-63
2022/01/18 10:19:37;;;;;;;45.35;22.95;;;;;;;;;;5005277;28;20041;-63
2022/01/18 10:22:28;;;;;;;45.40;20.10;;;;;;;;;;5002274;28;20018;-63
2022/01/18 10:24:55;;;;;;;42.55;20.30;;;;;;;;;;5002477;28;20042;-63
2022/01/18 10:27:21;;;;;;;47.35;21.55;;;;;;;;;;4999639;28;20018;-63
2022/01/18 10:29:49;;;;;;;43.33;19.48;;;;;;;;;;5002350;28;20081;-63
2022/01/18 10:32:24;;;;;;;46.35;21.35;;;;;;;;;;5004938;28;20044;-62
2022/01/18 10:37:16;;;;;;;42.95;21.48;;;;;;;;;;5004953;28;20080;-63
2022/01/18 10:39:44;;;;;;;43.33;20.63;;;;;;;;;;5001448;28;20041;-63
2022/01/18 10:42:17;;;;;;;43.25;19.58;;;;;;;;;;5004452;28;20088;-63
2022/01/18 10:44:45;;;;;;;38.22;19.55;;;;;;;;;;4999229;28;20030;-63
2022/01/18 10:47:11;;;;;;;40.00;17.77;;;;;;;;;;5003691;28;20080;-63
2022/01/18 10:49:40;;;;;;;37.42;18.27;;;;;;;;;;5004500;28;20079;-63
2022/01/18 10:52:21;;;;;;;38.72;18.25;;;;;;;;;;5003021;28;20370;-64
2022/01/18 10:54:47;;;;;;;38.17;18.80;;;;;;;;;;4998296;28;20027;-63
2022/01/18 10:57:21;;;;;;;41.72;18.30;;;;;;;;;;5000378;28;20117;-63
2022/01/18 10:59:48;;;;;;;39.53;18.90;;;;;;;;;;5003204;28;20478;-63
2022/01/18 11:02:18;;;;;;;43.38;17.73;;;;;;;;;;5003520;28;20386;-63
2022/01/18 11:04:45;;;;;;;43.13;18.13;;;;;;;;;;4998782;28;20110;-63
2022/01/18 11:07:12;;;;;;;42.38;18.90;;;;;;;;;;5004755;28;20030;-63
2022/01/18 11:09:39;;;;;;;41.30;19.23;;;;;;;;;;5002501;28;20034;-63
2022/01/18 11:12:05;;;;;;;35.90;17.42;;;;;;;;;;4999223;28;20113;-63
2022/01/18 11:14:32;;;;;;;35.83;17.90;;;;;;;;;;4999752;28;20103;-63
2022/01/18 11:16:59;;;;;;;39.28;19.00;;;;;;;;;;5002761;28;20065;-63
2022/01/18 11:21:53;;;;;;;33.05;15.65;;;;;;;;;;5000975;28;20038;-63
2022/01/18 11:24:20;;;;;;;35.50;17.38;;;;;;;;;;4982394;28;20026;-63
2022/01/18 11:26:47;;;;;;;33.72;16.73;;;;;;;;;;5001400;28;20495;-63
2022/01/18 11:29:16;;;;;;;33.80;16.95;;;;;;;;;;5001152;28;20019;-62
2022/01/18 11:31:45;;;;;;;35.67;16.98;;;;;;;;;;5001653;28;20037;-63
2022/01/18 11:34:13;;;;;;;30.55;15.80;;;;;;;;;;4992709;28;20165;-63
2022/01/18 11:36:42;;;;;;;33.53;17.45;;;;;;;;;;4993555;28;20403;-63
2022/01/18 11:39:11;;;;;;;30.17;16.27;;;;;;;;;;4992689;28;20499;-62
2022/01/18 11:41:37;;;;;;;29.52;15.20;;;;;;;;;;4999321;28;20049;-62
2022/01/18 11:44:14;;;;;;;31.85;16.75;;;;;;;;;;5000495;28;20030;-62
2022/01/18 11:46:48;;;;;;;36.67;16.75;;;;;;;;;;4992120;28;20031;-63
2022/01/18 11:49:29;;;;;;;34.63;17.60;;;;;;;;;;5001281;28;20386;-63
2022/01/18 11:51:59;;;;;;;34.70;17.98;;;;;;;;;;4994796;28;20026;-63
2022/01/18 11:56:57;;;;;;;33.58;17.42;;;;;;;;;;5000396;28;20033;-63
2022/01/18 11:59:28;;;;;;;35.92;17.50;;;;;;;;;;4999795;28;20073;-63
2022/01/18 12:01:54;;;;;;;37.28;17.98;;;;;;;;;;4995225;28;20039;-63
2022/01/18 12:04:57;;;;;;;32.10;17.17;;;;;;;;;;5001821;28;20034;-63
2022/01/18 12:07:36;;;;;;;36.60;18.13;;;;;;;;;;4943729;28;20047;-63
2022/01/18 12:10:21;;;;;;;36.40;17.92;;;;;;;;;;4932941;29;20464;-63
2022/01/18 12:12:49;;;;;;;36.35;18.60;;;;;;;;;;4942554;29;20031;-63
2022/01/18 12:15:18;;;;;;;40.10;18.65;;;;;;;;;;4930431;29;20475;-63
2022/01/18 12:17:48;;;;;;;37.10;18.65;;;;;;;;;;4955708;28;20441;-63
2022/01/18 12:20:32;;;;;;;39.80;18.92;;;;;;;;;;4942628;29;20524;-63
2022/01/18 12:22:59;;;;;;;39.40;19.33;;;;;;;;;;4948352;28;20062;-63
2022/01/18 12:25:34;;;;;;;39.70;18.98;;;;;;;;;;4941688;28;20028;-63
2022/01/18 12:28:21;;;;;;;41.92;20.35;;;;;;;;;;4947134;28;20032;-62
2022/01/18 12:31:06;;;;;;;43.50;20.05;;;;;;;;;;4944876;28;20062;-62
2022/01/18 12:33:45;;;;;;;41.72;19.15;;;;;;;;;;4946071;29;20039;-65
2022/01/18 12:36:28;;;;;;;43.33;21.73;;;;;;;;;;4951476;28;20036;-63
2022/01/18 12:39:01;;;;;;;38.63;19.77;;;;;;;;;;4954585;29;20097;-63
2022/01/18 12:41:45;;;;;;;45.38;20.65;;;;;;;;;;4940448;28;20031;-63
2022/01/18 12:44:21;;;;;;;44.10;20.77;;;;;;;;;;4985570;28;20061;-63
2022/01/18 12:46:53;;;;;;;41.28;20.92;;;;;;;;;;4998362;28;20475;-63
2022/01/18 12:49:20;;;;;;;46.15;23.42;;;;;;;;;;4997368;28;20150;-63
2022/01/18 12:51:46;;;;;;;47.40;22.30;;;;;;;;;;4999182;28;20031;-63
2022/01/18 12:54:12;;;;;;;53.13;24.33;;;;;;;;;;4999311;28;20030;-63
2022/01/18 12:56:39;;;;;;;47.47;23.65;;;;;;;;;;4999116;28;20014;-63
2022/01/18 12:59:05;;;;;;;54.58;23.42;;;;;;;;;;4998398;28;20022;-63
2022/01/18 13:01:33;;;;;;;47.20;22.77;;;;;;;;;;4999214;28;20077;-63
2022/01/18 13:03:59;;;;;;;49.60;22.60;;;;;;;;;;4999028;28;20050;-63
2022/01/18 13:06:26;;;;;;;49.92;22.67;;;;;;;;;;4999176;28;20034;-63
2022/01/18 13:09:00;;;;;;;55.20;24.73;;;;;;;;;;4999366;28;20022;-63
2022/01/18 13:11:30;;;;;;;54.17;25.67;;;;;;;;;;4998790;28;20034;-63
2022/01/18 13:14:01;;;;;;;52.35;24.90;;;;;;;;;;4999225;28;20042;-63
2022/01/18 13:28:00;;;;;;;48.85;21.85;;;;;;;;;;4995308;28;20182;-63
2022/01/18 13:30:15;;;;;;;47.00;23.13;;;;;;;;;;4991377;28;20038;-63
2022/01/18 13:32:42;;;;;;;45.95;22.35;;;;;;;;;;5004941;28;20045;-63
2022/01/18 13:35:08;;;;;;;43.28;23.00;;;;;;;;;;4995435;28;20070;-63
2022/01/18 13:37:37;;;;;;;44.08;22.30;;;;;;;;;;4995655;28;20508;-63
2022/01/18 13:40:14;;;;;;;45.05;21.75;;;;;;;;;;5004288;28;20651;-63
2022/01/18 13:42:40;;;;;;;47.50;23.33;;;;;;;;;;5015034;28;20056;-63
2022/01/18 13:45:09;;;;;;;47.83;22.80;;;;;;;;;;5014930;28;20034;-63
2022/01/18 13:47:44;;;;;;;44.38;22.75;;;;;;;;;;4996678;28;20080;-63
2022/01/18 13:50:28;;;;;;;49.15;23.02;;;;;;;;;;4995273;28;20038;-63
2022/01/18 13:52:59;;;;;;;43.13;21.85;;;;;;;;;;4977887;28;20398;-63
2022/01/18 13:55:26;;;;;;;47.58;21.35;;;;;;;;;;4994815;28;20034;-63
2022/01/18 13:57:56;;;;;;;46.70;23.77;;;;;;;;;;4995393;28;20031;-63
2022/01/18 14:00:23;;;;;;;43.90;22.90;;;;;;;;;;4994779;28;20030;-63
2022/01/18 14:02:49;;;;;;;50.60;22.90;;;;;;;;;;4995648;28;20019;-63
2022/01/18 14:05:19;;;;;;;48.70;22.27;;;;;;;;;;4994876;28;20035;-63
2022/01/18 14:07:45;;;;;;;46.80;22.38;;;;;;;;;;4995230;28;20033;-63
2022/01/18 14:10:11;;;;;;;48.58;23.40;;;;;;;;;;4994690;28;20030;-63
2022/01/18 14:12:37;;;;;;;52.75;24.63;;;;;;;;;;4977771;28;20038;-63
2022/01/18 14:15:03;;;;;;;44.75;21.90;;;;;;;;;;4994617;28;20046;-63
2022/01/18 14:17:29;;;;;;;46.45;22.95;;;;;;;;;;4995013;28;20034;-63
2022/01/18 14:20:04;;;;;;;44.42;22.58;;;;;;;;;;4994830;28;20031;-63
2022/01/18 14:22:34;;;;;;;43.03;21.65;;;;;;;;;;4994868;28;20391;-63
2022/01/18 14:25:04;;;;;;;44.70;22.02;;;;;;;;;;4994626;28;20038;-63
2022/01/18 14:27:34;;;;;;;44.22;22.23;;;;;;;;;;5013923;28;20036;-63
2022/01/18 14:30:00;;;;;;;44.58;21.38;;;;;;;;;;5014367;28;20026;-63
2022/01/18 14:32:36;;;;;;;43.35;21.23;;;;;;;;;;5010784;28;20031;-63
2022/01/18 14:35:03;;;;;;;41.15;20.92;;;;;;;;;;4994721;28;20030;-63
2022/01/18 14:37:40;;;;;;;50.03;22.25;;;;;;;;;;4994473;28;20489;-63
2022/01/18 14:40:11;;;;;;;45.95;19.73;;;;;;;;;;4993945;28;20082;-63
2022/01/18 14:42:46;;;;;;;44.03;19.48;;;;;;;;;;4994534;28;20030;-63
2022/01/18 14:47:39;;;;;;;40.90;19.98;;;;;;;;;;4994256;28;20041;-63
2022/01/18 14:50:07;;;;;;;45.60;20.13;;;;;;;;;;4976766;28;20041;-63
2022/01/18 14:52:33;;;;;;;42.22;20.80;;;;;;;;;;4994253;28;20049;-63
2022/01/18 14:55:00;;;;;;;39.03;18.80;;;;;;;;;;4993614;28;20042;-63
2022/01/18 14:57:26;;;;;;;39.20;19.35;;;;;;;;;;4990888;28;20026;-63
2022/01/18 14:59:53;;;;;;;46.33;19.35;;;;;;;;;;4998058;28;20088;-63
2022/01/18 15:02:19;;;;;;;46.47;20.95;;;;;;;;;;4993962;28;20034;-63
2022/01/18 15:04:45;;;;;;;41.33;20.70;;;;;;;;;;4994094;28;20029;-63
2022/01/18 15:07:12;;;;;;;43.72;21.05;;;;;;;;;;4994178;28;20113;-63
2022/01/18 15:09:38;;;;;;;42.67;20.38;;;;;;;;;;4993638;28;20109;-63
2022/01/18 15:12:05;;;;;;;47.40;21.90;;;;;;;;;;4993795;28;20034;-63
2022/01/18 15:14:32;;;;;;;51.13;23.60;;;;;;;;;;4994228;28;20026;-63
2022/01/18 15:16:59;;;;;;;45.58;21.13;;;;;;;;;;5007417;28;20018;-63
2022/01/18 15:19:25;;;;;;;42.40;19.88;;;;;;;;;;5002617;28;20105;-63
2022/01/18 15:21:52;;;;;;;43.83;22.15;;;;;;;;;;4998466;28;20099;-63
2022/01/18 15:24:18;;;;;;;43.53;21.75;;;;;;;;;;5011799;28;20022;-63
2022/01/18 15:26:44;;;;;;;45.25;19.85;;;;;;;;;;4988174;28;20029;-63
2022/01/18 15:29:11;;;;;;;40.85;19.50;;;;;;;;;;4990896;28;20027;-63
2022/01/18 15:31:37;;;;;;;36.28;17.60;;;;;;;;;;4992853;28;20127;-63
2022/01/18 15:34:03;;;;;;;40.08;18.90;;;;;;;;;;4993032;28;20038;-63
2022/01/18 15:36:29;;;;;;;38.42;17.92;;;;;;;;;;4993468;28;20530;-63
2022/01/18 15:38:55;;;;;;;37.75;18.38;;;;;;;;;;4977483;28;20060;-63
2022/01/18 15:41:21;;;;;;;35.05;19.05;;;;;;;;;;4992827;28;20030;-63
2022/01/18 15:43:47;;;;;;;39.03;18.83;;;;;;;;;;4992095;28;20483;-63
2022/01/18 15:46:15;;;;;;;45.03;20.13;;;;;;;;;;4994260;28;20054;-63
2022/01/18 15:48:43;;;;;;;40.33;19.85;;;;;;;;;;4993638;28;20411;-63
2022/01/18 15:51:09;;;;;;;41.03;19.58;;;;;;;;;;4990192;28;20045;-63
2022/01/18 15:53:35;;;;;;;41.38;20.42;;;;;;;;;;4992462;28;20029;-63
2022/01/18 15:56:02;;;;;;;37.33;19.00;;;;;;;;;;4992586;28;20703;-63
2022/01/18 15:58:28;;;;;;;40.75;19.95;;;;;;;;;;4990116;28;20491;-63
2022/01/18 16:00:54;;;;;;;41.35;19.25;;;;;;;;;;4992525;28;20038;-63